createdAt,value
2023-05-11T00:03:10.539Z,99676.97
2023-05-11T00:07:13.819Z,99673.50
2023-05-11T00:11:18.786Z,99673.56
2023-05-11T00:15:22.414Z,99665.66
2023-05-11T00:19:25.426Z,99666.50
2023-05-11T00:23:28.425Z,99662.22
2023-05-11T00:27:32.801Z,99670.16
2023-05-11T00:31:35.955Z,99670.19
2023-05-11T00:35:39.254Z,99674.59
2023-05-11T00:39:42.307Z,99664.94
2023-05-11T00:43:46.872Z,99673.78
2023-05-11T00:47:49.969Z,99674.72
2023-05-11T00:51:53.148Z,99670.25
2023-05-11T00:55:56.238Z,99678.22
2023-05-11T01:00:02.658Z,99677.38
2023-05-11T01:04:06.610Z,99672.94
2023-05-11T01:08:14.382Z,99667.59
2023-05-11T01:12:27.857Z,99671.13
2023-05-11T01:16:39.312Z,99673.88
2023-05-11T01:20:47.957Z,99670.28
2023-05-11T01:25:06.774Z,99677.41
2023-05-11T01:29:44.203Z,99671.22
2023-05-11T01:33:55.301Z,99679.19
2023-05-11T01:38:00.850Z,99675.59
2023-05-11T01:42:09.712Z,99675.56
2023-05-11T01:46:15.672Z,99676.44
2023-05-11T01:50:22.561Z,99676.53
2023-05-11T01:54:26.587Z,99677.44
2023-05-11T01:58:31.065Z,99671.41
2023-05-11T02:02:35.379Z,99671.50
2023-05-11T02:06:42.220Z,99670.75
2023-05-11T02:10:47.786Z,99673.53
2023-05-11T02:14:53.664Z,99679.75
2023-05-11T02:18:58.877Z,99684.19
2023-05-11T02:23:04.542Z,99674.44
2023-05-11T02:27:07.735Z,99682.34
2023-05-11T02:31:17.825Z,99679.66
2023-05-11T02:35:25.168Z,99673.41
2023-05-11T02:39:34.643Z,99683.16
2023-05-11T02:43:43.405Z,99681.44
2023-05-11T02:47:53.290Z,99689.47
2023-05-11T02:52:02.270Z,99687.75
2023-05-11T02:56:09.712Z,99681.59
2023-05-11T03:00:14.462Z,99683.34
2023-05-11T03:04:18.579Z,99686.03
2023-05-11T03:08:21.739Z,99692.22
2023-05-11T03:12:31.500Z,99686.06
2023-05-11T03:16:38.538Z,99685.22
2023-05-11T03:20:45.783Z,99685.22
2023-05-11T03:24:49.660Z,99680.81
2023-05-11T03:28:55.188Z,99680.84
2023-05-11T03:32:58.594Z,99686.19
2023-05-11T03:37:03.178Z,99676.53
2023-05-11T03:41:06.358Z,99675.69
2023-05-11T03:45:17.701Z,99676.50
2023-05-11T03:49:21.538Z,99673.00
2023-05-11T03:53:25.674Z,99671.25
2023-05-11T03:57:29.279Z,99671.25
2023-05-11T04:01:34.333Z,99681.88
2023-05-11T04:05:37.471Z,99679.25
2023-05-11T04:09:43.180Z,99680.16
2023-05-11T04:13:46.285Z,99689.00
2023-05-11T04:17:51.534Z,99692.50
2023-05-11T04:21:54.609Z,99690.72
2023-05-11T04:25:57.797Z,99694.22
2023-05-11T04:30:00.821Z,99694.22
2023-05-11T04:34:09.033Z,99697.88
2023-05-11T04:38:13.589Z,99690.84
2023-05-11T04:42:16.792Z,99692.56
2023-05-11T04:46:23.854Z,99703.09
2023-05-11T04:50:29.543Z,99705.66
2023-05-11T04:54:33.346Z,99703.78
2023-05-11T04:58:36.616Z,99704.66
2023-05-11T05:02:39.753Z,99705.50
2023-05-11T05:06:44.195Z,99711.69
2023-05-11T05:10:48.536Z,99710.78
2023-05-11T05:14:51.749Z,99719.59
2023-05-11T05:18:55.013Z,99715.19
2023-05-11T05:23:00.079Z,99720.41
2023-05-11T05:27:03.212Z,99718.50
2023-05-11T05:31:06.442Z,99725.53
2023-05-11T05:35:10.749Z,99716.59
2023-05-11T05:39:15.673Z,99716.50
2023-05-11T05:43:18.803Z,99720.72
2023-05-11T05:47:22.379Z,99727.72
2023-05-11T05:51:25.680Z,99725.75
2023-05-11T05:55:30.361Z,99722.09
2023-05-11T05:59:34.458Z,99727.25
2023-05-11T06:03:38.702Z,99734.22
2023-05-11T06:07:42.022Z,99734.03
2023-05-11T06:11:46.525Z,99732.97
2023-05-11T06:15:49.790Z,99738.16
2023-05-11T06:20:08.132Z,99739.69
2023-05-11T06:24:12.076Z,99743.19
2023-05-11T06:28:19.306Z,99740.41
2023-05-11T06:32:22.491Z,99746.34
2023-05-11T06:36:25.636Z,99742.72
2023-05-11T06:40:29.281Z,99741.59
2023-05-11T06:44:34.306Z,99744.09
2023-05-11T06:48:37.652Z,99733.19
2023-05-11T06:52:40.676Z,99739.94
2023-05-11T06:56:43.862Z,99743.19
2023-05-11T07:00:48.573Z,99743.81
2023-05-11T07:04:51.692Z,99740.97
2023-05-11T07:08:54.735Z,99739.91
2023-05-11T07:12:57.779Z,99731.84
2023-05-11T07:17:02.329Z,99731.66
2023-05-11T07:21:05.461Z,99738.75
2023-05-11T07:25:10.459Z,99735.28
2023-05-11T07:29:13.517Z,99737.66
2023-05-11T07:33:17.957Z,99729.53
2023-05-11T07:37:21.030Z,99730.31
2023-05-11T07:41:26.862Z,99734.69
2023-05-11T07:45:29.951Z,99737.81
2023-05-11T07:49:42.922Z,99728.72
2023-05-11T07:53:47.208Z,99729.13
2023-05-11T07:57:50.253Z,99726.84
2023-05-11T08:01:53.485Z,99728.28
2023-05-11T08:05:58.180Z,99725.22
2023-05-11T08:10:01.294Z,99726.41
2023-05-11T08:14:04.767Z,99723.44
2023-05-11T08:18:08.230Z,99722.19
2023-05-11T08:22:12.760Z,99720.56
2023-05-11T08:26:16.471Z,99723.13
2023-05-11T08:30:19.940Z,99733.75
2023-05-11T08:34:23.520Z,99711.38
2023-05-11T08:38:28.012Z,99718.47
2023-05-11T08:42:35.151Z,99712.53
2023-05-11T08:46:42.920Z,99709.44
2023-05-11T08:50:46.734Z,99710.72
2023-05-11T08:54:51.136Z,99706.91
2023-05-11T08:58:56.173Z,99706.75
2023-05-11T09:02:59.659Z,99705.75
2023-05-11T09:07:02.740Z,99698.25
2023-05-11T09:11:07.963Z,99698.03
2023-05-11T09:15:12.306Z,99689.75
2023-05-11T09:19:16.730Z,99684.81
2023-05-11T09:23:20.473Z,99675.53
2023-05-11T09:27:26.150Z,99677.28
2023-05-11T09:31:42.855Z,99687.03
2023-05-11T09:35:46.050Z,99682.03
2023-05-11T09:40:12.978Z,99671.50
2023-05-11T09:44:20.476Z,99681.22
2023-05-11T09:48:29.641Z,99678.19
2023-05-11T09:52:32.929Z,99679.53
2023-05-11T09:56:49.597Z,99673.66
2023-05-11T10:00:54.838Z,99681.09
2023-05-11T10:04:59.465Z,99664.34
2023-05-11T10:09:10.045Z,99661.56
2023-05-11T10:13:13.203Z,99657.63
2023-05-11T10:17:18.322Z,99653.19
2023-05-11T10:21:21.841Z,99645.25
2023-05-11T10:25:26.578Z,99646.56
2023-05-11T10:29:30.768Z,99649.88
2023-05-11T10:33:36.583Z,99636.66
2023-05-11T10:37:41.566Z,99640.72
2023-05-11T10:41:54.367Z,99641.94
2023-05-11T10:46:09.464Z,99629.50
2023-05-11T10:50:30.527Z,99624.94
2023-05-11T10:54:47.629Z,99625.63
2023-05-11T10:59:07.584Z,99615.13
2023-05-11T11:03:12.495Z,99607.69
2023-05-11T11:07:18.760Z,99608.41
2023-05-11T11:11:36.006Z,99606.41
2023-05-11T11:16:16.200Z,99601.91
2023-05-11T11:20:48.816Z,99602.81
2023-05-11T11:24:53.282Z,99601.16
2023-05-11T11:29:12.370Z,99594.31
2023-05-11T11:33:35.618Z,99594.44
2023-05-11T11:38:03.091Z,99600.22
2023-05-11T11:42:09.486Z,99587.00
2023-05-11T11:46:27.104Z,99588.56
2023-05-11T11:50:30.386Z,99594.84
2023-05-11T11:54:40.146Z,99596.97
2023-05-11T11:59:01.343Z,99582.56
2023-05-11T12:03:05.842Z,99577.03
2023-05-11T12:07:11.499Z,99577.53
2023-05-11T12:11:19.039Z,99563.06
2023-05-11T12:15:27.668Z,99572.78
2023-05-11T12:19:30.968Z,99562.69
2023-05-11T12:23:34.048Z,99569.53
2023-05-11T12:27:37.398Z,99554.44
2023-05-11T12:31:43.775Z,99554.03
2023-05-11T12:35:47.049Z,99552.13
2023-05-11T12:39:55.369Z,99546.97
2023-05-11T12:43:58.668Z,99556.34
2023-05-11T12:48:04.336Z,99542.22
2023-05-11T12:52:09.187Z,99530.47
2023-05-11T12:56:12.474Z,99533.59
2023-05-11T13:00:18.968Z,99531.75
2023-05-11T13:04:33.879Z,99526.25
2023-05-11T13:08:37.968Z,99526.16
2023-05-11T13:12:49.549Z,99520.91
2023-05-11T13:16:55.847Z,99519.31
2023-05-11T13:21:09.844Z,99516.78
2023-05-11T13:25:13.178Z,99507.31
2023-05-11T13:29:16.461Z,99509.19
2023-05-11T13:33:19.934Z,99510.84
2023-05-11T13:37:24.402Z,99506.13
2023-05-11T13:41:27.380Z,99500.69
2023-05-11T13:45:30.496Z,99489.53
2023-05-11T13:49:33.391Z,99502.22
2023-05-11T13:53:37.634Z,99488.69
2023-05-11T13:57:40.796Z,99505.41
2023-05-11T14:01:43.857Z,99488.53
2023-05-11T14:05:49.021Z,99484.31
2023-05-11T14:09:53.328Z,99485.56
2023-05-11T14:13:56.262Z,99484.06
2023-05-11T14:18:00.464Z,99478.25
2023-05-11T14:22:03.523Z,99483.84
2023-05-11T14:26:07.945Z,99478.75
2023-05-11T14:30:11.655Z,99469.94
2023-05-11T14:34:14.547Z,99467.38
2023-05-11T14:38:17.694Z,99461.38
2023-05-11T14:42:22.129Z,99467.56
2023-05-11T14:46:26.715Z,99468.19
2023-05-11T14:50:30.301Z,99464.72
2023-05-11T14:54:33.221Z,99470.50
2023-05-11T14:58:37.645Z,99465.28
2023-05-11T15:02:40.951Z,99466.44
2023-05-11T15:06:44.135Z,99454.97
2023-05-11T15:10:47.110Z,99463.06
2023-05-11T15:14:51.938Z,99460.34
2023-05-11T15:18:55.195Z,99486.31
2023-05-11T15:22:58.239Z,99454.38
2023-05-11T15:27:01.226Z,99464.38
2023-05-11T15:31:05.522Z,99468.03
2023-05-11T15:35:09.148Z,99461.81
2023-05-11T15:39:12.202Z,99470.63
2023-05-11T15:43:15.162Z,99466.38
2023-05-11T15:47:19.479Z,99472.88
2023-05-11T15:51:22.634Z,99468.81
2023-05-11T15:55:25.640Z,99470.94
2023-05-11T15:59:28.663Z,99478.06
2023-05-11T16:03:33.229Z,99473.63
2023-05-11T16:07:36.218Z,99474.53
2023-05-11T16:11:39.128Z,99470.22
2023-05-11T16:15:42.151Z,99471.44
2023-05-11T16:19:46.619Z,99471.50
2023-05-11T16:23:49.559Z,99469.72
2023-05-11T16:27:52.521Z,99472.41
2023-05-11T16:31:55.876Z,99469.91
2023-05-11T16:36:00.276Z,99482.50
2023-05-11T16:40:04.760Z,99482.78
2023-05-11T16:44:07.724Z,99484.84
2023-05-11T16:48:10.784Z,99483.25
2023-05-11T16:52:15.045Z,99481.78
2023-05-11T16:56:18.042Z,99483.72
2023-05-11T17:00:21.657Z,99483.84
2023-05-11T17:04:25.006Z,99480.50
2023-05-11T17:08:29.617Z,99478.75
2023-05-11T17:12:35.575Z,99483.28
2023-05-11T17:16:38.680Z,99491.44
2023-05-11T17:20:42.072Z,99485.22
2023-05-11T17:24:46.792Z,99480.91
2023-05-11T17:28:49.806Z,99481.00
2023-05-11T17:32:53.083Z,99490.06
2023-05-11T17:36:56.641Z,99478.69
2023-05-11T17:41:04.765Z,99485.97
2023-05-11T17:45:09.508Z,99492.50
2023-05-11T17:49:12.427Z,99489.06
2023-05-11T17:53:15.403Z,99495.38
2023-05-11T17:57:19.687Z,99491.06
2023-05-11T18:01:22.848Z,99496.53
2023-05-11T18:05:33.361Z,99495.72
2023-05-11T18:09:39.758Z,99496.78
2023-05-11T18:13:44.035Z,99499.50
2023-05-11T18:17:47.006Z,99500.47
2023-05-11T18:21:51.938Z,99525.50
2023-05-11T18:25:55.165Z,99548.31
2023-05-11T18:29:59.510Z,99563.50
2023-05-11T18:34:02.416Z,99583.19
2023-05-11T18:38:05.398Z,99583.09
2023-05-11T18:42:08.499Z,99596.94
2023-05-11T18:46:12.821Z,99593.88
2023-05-11T18:50:15.992Z,99601.56
2023-05-11T18:54:18.919Z,99612.75
2023-05-11T18:58:22.466Z,99621.00
2023-05-11T19:02:26.839Z,99632.16
2023-05-11T19:06:29.955Z,99640.53
2023-05-11T19:10:32.922Z,99643.50
2023-05-11T19:14:37.407Z,99642.97
2023-05-11T19:18:41.703Z,99647.59
2023-05-11T19:22:44.899Z,99655.03
2023-05-11T19:27:02.559Z,99666.91
2023-05-11T19:31:09.344Z,99667.25
2023-05-11T19:35:14.754Z,99676.38
2023-05-11T19:39:18.034Z,99673.91
2023-05-11T19:43:20.983Z,99683.72
2023-05-11T19:47:23.905Z,99690.06
2023-05-11T19:51:28.211Z,99688.44
2023-05-11T19:55:31.309Z,99693.91
2023-05-11T19:59:34.261Z,99701.22
2023-05-11T20:03:37.334Z,99704.91
2023-05-11T20:07:41.805Z,99708.53
2023-05-11T20:11:44.809Z,99705.03
2023-05-11T20:15:48.868Z,99713.13
2023-05-11T20:19:51.901Z,99707.88
2023-05-11T20:23:56.664Z,99711.53
2023-05-11T20:27:59.645Z,99722.31
2023-05-11T20:32:02.829Z,99716.16
2023-05-11T20:36:06.338Z,99723.38
2023-05-11T20:40:14.578Z,99713.75
2023-05-11T20:44:19.720Z,99721.84
2023-05-11T20:48:32.464Z,99726.28
2023-05-11T20:52:42.541Z,99723.63
2023-05-11T20:56:47.365Z,99714.00
2023-05-11T21:00:50.363Z,99715.72
2023-05-11T21:04:54.081Z,99709.56
2023-05-11T21:08:57.142Z,99707.72
2023-05-11T21:13:01.888Z,99713.94
2023-05-11T21:17:04.850Z,99719.28
2023-05-11T21:21:09.156Z,99721.03
2023-05-11T21:25:16.057Z,99722.78
2023-05-11T21:29:20.566Z,99721.97
2023-05-11T21:33:23.725Z,99723.78
2023-05-11T21:37:26.913Z,99728.28
2023-05-11T21:41:29.922Z,99723.91
2023-05-11T21:45:36.876Z,99728.34
2023-05-11T21:49:39.852Z,99732.78
2023-05-11T21:53:42.766Z,99732.69
2023-05-11T21:57:45.705Z,99735.34
2023-05-11T22:01:50.003Z,99737.03
2023-05-11T22:05:52.909Z,99734.38
2023-05-11T22:09:56.041Z,99735.44
2023-05-11T22:13:59.054Z,99732.13
2023-05-11T22:18:07.408Z,99739.28
2023-05-11T22:22:10.380Z,99735.78
2023-05-11T22:26:13.322Z,99735.75
2023-05-11T22:30:16.498Z,99742.78
2023-05-11T22:34:22.044Z,99737.59
2023-05-11T22:38:24.994Z,99741.22
2023-05-11T22:42:30.668Z,99734.16
2023-05-11T22:46:33.658Z,99740.31
2023-05-11T22:50:37.920Z,99725.34
2023-05-11T22:54:40.864Z,99731.53
2023-05-11T22:58:43.756Z,99726.34
2023-05-11T23:02:47.185Z,99730.72
2023-05-11T23:06:51.533Z,99715.66
2023-05-11T23:10:54.679Z,99716.53
2023-05-11T23:14:57.589Z,99716.50
2023-05-11T23:19:02.361Z,99717.38
2023-05-11T23:23:06.683Z,99721.81
2023-05-11T23:27:09.733Z,99713.91
2023-05-11T23:31:12.689Z,99715.63
2023-05-11T23:35:15.857Z,99715.63
2023-05-11T23:39:35.497Z,99713.00
2023-05-11T23:43:38.510Z,99709.50
2023-05-11T23:47:41.439Z,99707.75
2023-05-11T23:51:44.509Z,99709.53
2023-05-11T23:55:49.295Z,99700.75
2023-05-11T23:59:52.237Z,99704.34
